Time;durP1;ratioP1;P1;durP2;ratioP2;P2;SDS_P1;SDS_P2;PMS_P1;PMS_P2;Temp;Humidity;BMP_temperature;BMP_pressure;BME280_temperature;BME280_humidity;BME280_pressure;Samples;Min_cycle;Max_cycle;Signal;HPM_P1;HPM_P2
2022/03/27 00:00:03;;;;;;;9.88;6.28;;;;;;;30.98;62.18;101094.13;5017655;28;66772;-36
2022/03/27 00:02:42;;;;;;;7.63;6.93;;;;;;;30.95;63.09;101091.81;5020752;28;70128;-36
2022/03/27 00:05:13;;;;;;;10.18;7.35;;;;;;;31.10;62.34;101105.91;5019392;28;65859;-38
2022/03/27 00:07:44;;;;;;;14.85;8.25;;;;;;;31.13;63.59;101107.38;5024139;28;70094;-36
2022/03/27 00:10:14;;;;;;;19.90;8.02;;;;;;;31.20;62.88;101107.31;5008768;28;65994;-37
2022/03/27 00:12:45;;;;;;;12.27;8.75;;;;;;;31.24;64.86;101119.41;4998992;28;70347;-36
2022/03/27 00:15:15;;;;;;;13.82;9.80;;;;;;;31.29;64.35;101125.00;5017015;28;66563;-48
2022/03/27 00:17:48;;;;;;;13.95;9.35;;;;;;;31.25;66.92;101131.91;4998284;28;70137;-36
2022/03/27 00:20:18;;;;;;;16.73;9.35;;;;;;;31.25;67.68;101121.88;5011236;28;65672;-35
2022/03/27 00:22:49;;;;;;;14.05;9.55;;;;;;;31.28;68.27;101123.31;5015192;28;70621;-36
2022/03/27 00:25:20;;;;;;;13.13;11.45;;;;;;;31.27;68.91;101135.22;5011710;28;66275;-35
2022/03/27 00:27:50;;;;;;;12.00;10.32;;;;;;;31.22;69.17;101137.75;5019250;28;69836;-35
2022/03/27 00:30:21;;;;;;;11.95;9.60;;;;;;;31.27;69.62;101146.06;5011883;28;66455;-35
2022/03/27 00:32:52;;;;;;;12.73;10.02;;;;;;;31.15;69.94;101119.66;5012806;28;69840;-35
2022/03/27 00:35:23;;;;;;;16.75;9.85;;;;;;;31.29;68.81;101143.97;5002470;28;65789;-36
2022/03/27 00:37:54;;;;;;;13.50;9.50;;;;;;;31.35;68.80;101153.94;4996437;28;69467;-36
2022/03/27 00:40:25;;;;;;;11.20;8.13;;;;;;;31.38;68.85;101154.38;5009207;28;65630;-35
2022/03/27 00:42:55;;;;;;;18.00;9.07;;;;;;;31.37;68.51;101147.28;5001340;28;70324;-36
2022/03/27 00:45:26;;;;;;;9.38;8.35;;;;;;;31.36;68.38;101150.22;5012796;28;65717;-36
2022/03/27 00:47:57;;;;;;;12.82;9.35;;;;;;;31.45;67.51;101154.31;5013869;28;69736;-35
2022/03/27 00:50:27;;;;;;;9.63;8.35;;;;;;;31.49;68.04;101166.41;5014661;28;66263;-35
2022/03/27 00:52:58;;;;;;;9.13;8.23;;;;;;;31.53;67.95;101161.38;5016203;28;70476;-35
2022/03/27 00:55:29;;;;;;;18.30;9.00;;;;;;;31.51;68.98;101158.88;5018097;28;65984;-35
2022/03/27 00:58:01;;;;;;;15.10;8.02;;;;;;;31.46;69.28;101161.41;5017250;28;68691;-34
2022/03/27 01:00:41;;;;;;;8.93;7.47;;;;;;;31.39;70.09;101163.31;5019611;28;66567;-35
2022/03/27 01:03:19;;;;;;;13.00;7.95;;;;;;;31.41;69.86;101165.84;5012523;28;69481;-35
2022/03/27 01:05:50;;;;;;;13.60;7.45;;;;;;;31.38;70.39;101164.38;5020595;28;66067;-36
2022/03/27 01:11:17;;;;;;;7.43;6.80;;;;;;;31.37;70.09;101170.84;5016660;28;65301;-36
2022/03/27 01:13:55;;;;;;;12.73;7.57;;;;;;;31.39;70.15;101166.84;5009963;28;70046;-35
2022/03/27 01:16:41;;;;;;;12.65;6.63;;;;;;;31.36;70.46;101171.91;4992738;28;65711;-36
2022/03/27 01:19:14;;;;;;;12.38;7.38;;;;;;;31.05;70.61;101113.84;4999264;28;69318;-35
2022/03/27 01:21:47;;;;;;;12.55;7.68;;;;;;;31.43;70.17;101171.88;5013681;28;66787;-34
2022/03/27 01:24:18;;;;;;;;;;;;;;;31.11;71.57;101178.03;5012428;28;70449;-35
2022/03/27 01:26:49;;;;;;;9.18;7.47;;;;;;;31.33;70.29;101169.59;4982046;28;64206;-35
2022/03/27 01:29:19;;;;;;;10.55;6.78;;;;;;;31.44;68.76;101174.34;4998075;28;70065;-37
2022/03/27 01:31:53;;;;;;;13.60;6.47;;;;;;;31.44;69.99;101177.06;4999779;28;66984;-36
2022/03/27 01:34:24;;;;;;;9.90;6.97;;;;;;;31.47;69.59;101173.91;4994194;28;70243;-37
2022/03/27 01:36:56;;;;;;;10.10;7.22;;;;;;;31.48;68.93;101170.16;4996206;28;65313;-34
2022/03/27 01:39:26;;;;;;;8.90;7.80;;;;;;;31.54;68.98;101174.72;4999084;28;69495;-35
2022/03/27 01:41:57;;;;;;;13.00;8.55;;;;;;;31.16;69.46;101110.47;4995594;28;66690;-36
2022/03/27 01:44:28;;;;;;;13.55;8.27;;;;;;;31.63;69.14;101172.56;5007463;28;70672;-39
2022/03/27 01:46:59;;;;;;;8.85;7.93;;;;;;;31.54;68.49;101155.75;4997550;28;66139;-35
2022/03/27 01:49:30;;;;;;;12.25;7.93;;;;;;;31.69;68.30;101181.72;5003113;28;71515;-35
2022/03/27 01:52:01;;;;;;;8.77;7.90;;;;;;;31.68;68.69;101180.03;4993833;28;67644;-35
2022/03/27 01:54:32;;;;;;;10.55;9.65;;;;;;;31.77;67.99;101179.56;4990355;28;69155;-36
2022/03/27 01:57:03;;;;;;;18.73;10.07;;;;;;;31.68;68.68;101164.63;4994671;28;65677;-36
2022/03/27 01:59:35;;;;;;;12.50;9.00;;;;;;;31.77;68.41;101185.00;5006700;28;69804;-36
2022/03/27 02:02:05;;;;;;;9.85;8.88;;;;;;;31.74;68.45;101182.72;4999548;28;65945;-37
2022/03/27 02:04:36;;;;;;;12.10;7.43;;;;;;;31.79;68.11;101182.06;4998508;28;71513;-36
2022/03/27 02:07:07;;;;;;;9.00;7.32;;;;;;;31.81;67.83;101182.66;4996111;28;65788;-37
2022/03/27 02:09:38;;;;;;;14.10;7.22;;;;;;;31.85;67.39;101186.63;4997617;28;69560;-38
2022/03/27 02:12:09;;;;;;;7.57;6.40;;;;;;;31.84;68.11;101182.22;4996522;28;65362;-36
2022/03/27 02:14:39;;;;;;;12.50;7.07;;;;;;;31.79;67.50;101179.38;4998137;28;70768;-37
2022/03/27 02:17:10;;;;;;;11.27;6.47;;;;;;;31.86;67.20;101177.41;4998720;28;65483;-36
2022/03/27 02:19:41;;;;;;;7.63;6.93;;;;;;;31.78;67.22;101169.53;4994501;28;70220;-36
2022/03/27 02:22:12;;;;;;;8.68;7.05;;;;;;;31.89;67.18;101178.84;4997546;28;67043;-37
2022/03/27 02:24:42;;;;;;;13.95;7.95;;;;;;;31.93;67.76;101189.09;4999758;28;70430;-36
2022/03/27 02:27:13;;;;;;;9.35;7.20;;;;;;;31.94;66.86;101189.91;4997296;28;67431;-36
2022/03/27 02:29:44;;;;;;;11.60;7.60;;;;;;;31.95;67.44;101186.97;5000068;28;70261;-37
2022/03/27 02:32:15;;;;;;;13.85;8.07;;;;;;;31.97;66.68;101190.31;4999937;28;65918;-37
2022/03/27 02:34:46;;;;;;;9.98;8.48;;;;;;;31.92;67.30;101176.56;4998511;28;70042;-37
2022/03/27 02:37:17;;;;;;;11.02;8.05;;;;;;;31.92;67.36;101171.13;4966392;28;67330;-37
2022/03/27 02:39:48;;;;;;;13.32;8.40;;;;;;;31.98;66.74;101181.13;4992045;28;69568;-37
2022/03/27 02:42:19;;;;;;;14.37;8.17;;;;;;;32.00;67.41;101178.19;4945204;28;64674;-38
2022/03/27 02:44:50;;;;;;;16.77;7.43;;;;;;;32.07;66.63;101178.09;4975923;28;69186;-43
2022/03/27 02:47:20;;;;;;;11.80;7.95;;;;;;;32.08;67.23;101182.50;4977997;28;65322;-37
2022/03/27 02:49:51;;;;;;;14.38;8.25;;;;;;;32.12;66.92;101170.97;4995033;28;70340;-37
2022/03/27 02:52:22;;;;;;;11.10;7.10;;;;;;;32.12;66.36;101165.53;4999307;28;65687;-35
2022/03/27 02:54:52;;;;;;;12.63;6.78;;;;;;;32.18;66.62;101177.38;5003029;28;70375;-36
2022/03/27 02:57:23;;;;;;;10.50;7.30;;;;;;;32.16;66.30;101171.38;4997136;28;66275;-36
2022/03/27 02:59:54;;;;;;;12.82;6.85;;;;;;;31.81;66.01;101109.44;4985899;28;68884;-35
2022/03/27 03:02:25;;;;;;;8.60;7.00;;;;;;;32.18;65.74;101169.25;4995729;28;67498;-37
2022/03/27 03:04:56;;;;;;;9.25;7.80;;;;;;;32.26;65.70;101171.69;4995607;28;70934;-36
2022/03/27 03:07:27;;;;;;;8.85;7.32;;;;;;;32.23;65.19;101172.13;5005434;28;66870;-37
2022/03/27 03:09:58;;;;;;;13.67;6.60;;;;;;;32.29;65.80;101171.25;5010495;28;69507;-36
2022/03/27 03:12:29;;;;;;;10.80;6.50;;;;;;;32.37;65.56;101168.22;5001657;28;66614;-36
2022/03/27 03:15:00;;;;;;;15.97;7.63;;;;;;;32.31;65.84;101144.69;4998715;28;69025;-36
2022/03/27 03:17:31;;;;;;;12.32;7.38;;;;;;;32.52;64.89;101158.97;4995894;28;66251;-38
2022/03/27 03:20:03;;;;;;;9.87;6.90;;;;;;;32.55;64.01;101158.50;5002325;28;69531;-37
2022/03/27 03:22:35;;;;;;;7.63;5.40;;;;;;;32.58;62.92;101148.00;4998509;28;66413;-36
2022/03/27 03:25:07;;;;;;;6.38;5.80;;;;;;;32.68;61.66;101166.47;4997530;28;69643;-36
2022/03/27 03:27:37;;;;;;;8.93;7.00;;;;;;;32.59;62.97;101133.38;5013848;28;66087;-41
2022/03/27 03:30:10;;;;;;;11.70;6.75;;;;;;;32.80;62.73;101159.25;5017161;28;69445;-36
2022/03/27 03:32:41;;;;;;;7.25;6.40;;;;;;;32.76;61.61;101147.16;5011419;28;65554;-37
2022/03/27 03:35:12;;;;;;;7.95;7.10;;;;;;;32.75;62.04;101131.94;5015798;28;69426;-36
2022/03/27 03:38:02;;;;;;;12.85;6.93;;;;;;;32.86;61.01;101155.63;5017043;28;66015;-36
2022/03/27 03:40:35;;;;;;;11.53;6.80;;;;;;;32.87;60.65;101146.41;4967894;28;69163;-36
2022/03/27 03:43:06;;;;;;;9.18;7.13;;;;;;;32.95;59.99;101137.13;4984257;28;65306;-37
2022/03/27 03:45:38;;;;;;;7.60;7.00;;;;;;;32.93;60.31;101128.38;4997814;28;70126;-37
2022/03/27 03:48:09;;;;;;;8.48;7.72;;;;;;;32.98;59.99;101131.22;4984075;28;66289;-36
2022/03/27 03:50:40;;;;;;;9.83;8.73;;;;;;;32.90;60.19;101107.94;4997597;28;70794;-38
2022/03/27 03:53:12;;;;;;;14.00;7.33;;;;;;;32.93;60.51;101118.34;4978258;28;66156;-37
2022/03/27 03:55:43;;;;;;;;;;;;;;;32.64;61.30;101108.25;4991654;28;69890;-37
2022/03/27 03:58:15;;;;;;;8.18;6.78;;;;;;;32.94;60.91;101103.69;4983951;28;65540;-38
2022/03/27 04:00:47;;;;;;;7.70;6.88;;;;;;;32.95;60.96;101099.06;4984986;28;70363;-36
2022/03/27 04:03:17;;;;;;;;;;;;;;;32.65;62.18;101093.59;4982858;28;65298;-36
2022/03/27 04:05:49;;;;;;;7.18;6.60;;;;;;;32.96;62.09;101097.19;4980875;28;69185;-37
2022/03/27 04:08:20;;;;;;;7.53;6.90;;;;;;;32.86;61.72;101078.72;5002100;28;65979;-36
2022/03/27 04:10:51;;;;;;;8.68;7.55;;;;;;;32.92;61.85;101086.78;4985302;28;69858;-35
2022/03/27 04:13:23;;;;;;;8.93;7.50;;;;;;;32.92;61.47;101083.25;4994902;28;66664;-37
2022/03/27 04:15:54;;;;;;;12.03;7.33;;;;;;;32.91;61.02;101071.53;4999041;28;70923;-36
2022/03/27 04:18:25;;;;;;;12.23;6.93;;;;;;;32.96;60.54;101068.16;5003374;28;65958;-36
2022/03/27 04:20:56;;;;;;;13.68;7.72;;;;;;;33.02;60.97;101072.69;4983753;28;70364;-38
2022/03/27 04:23:33;;;;;;;7.20;6.55;;;;;;;33.02;60.36;101050.94;4974926;28;66509;-37
2022/03/27 04:26:05;;;;;;;7.63;6.97;;;;;;;33.07;60.05;101052.94;4975019;28;69870;-39
2022/03/27 04:28:37;;;;;;;7.68;7.07;;;;;;;33.11;59.83;101043.28;4992367;28;64956;-37
2022/03/27 04:31:08;;;;;;;8.05;6.65;;;;;;;33.14;59.73;101034.66;5009708;28;68928;-37
2022/03/27 04:33:39;;;;;;;6.78;6.28;;;;;;;33.15;58.76;101023.56;5002018;28;66563;-36
2022/03/27 04:36:10;;;;;;;7.30;6.47;;;;;;;33.24;59.10;101021.34;4999815;28;70030;-36
2022/03/27 04:38:41;;;;;;;8.90;5.78;;;;;;;33.17;58.86;101012.47;4998167;28;65627;-36
2022/03/27 04:41:12;;;;;;;6.70;6.07;;;;;;;33.14;58.93;100996.63;5000295;28;68796;-36
2022/03/27 04:43:47;;;;;;;9.20;6.15;;;;;;;33.30;58.50;101009.53;4985237;28;65786;-36
2022/03/27 04:46:18;;;;;;;15.10;6.60;;;;;;;33.37;57.85;101012.97;4994594;28;69283;-35
2022/03/27 04:48:49;;;;;;;6.05;5.60;;;;;;;33.38;57.86;101000.22;4991612;28;65830;-38
2022/03/27 04:51:21;;;;;;;8.85;6.63;;;;;;;33.42;57.71;100997.84;4994742;28;69648;-37
2022/03/27 04:53:51;;;;;;;7.15;6.53;;;;;;;33.33;57.33;100981.88;4970452;28;66135;-38
2022/03/27 04:56:22;;;;;;;6.78;6.22;;;;;;;33.44;57.43;100995.72;4983785;28;69901;-37
2022/03/27 04:58:53;;;;;;;10.57;6.00;;;;;;;33.40;57.49;100970.88;4986264;28;65094;-36
2022/03/27 05:01:24;;;;;;;9.63;5.80;;;;;;;33.44;57.27;100971.25;4993529;28;72564;-37
2022/03/27 05:03:55;;;;;;;5.82;5.10;;;;;;;33.42;57.44;100962.50;5007020;28;65304;-36
2022/03/27 05:06:25;;;;;;;6.93;5.57;;;;;;;33.40;57.27;100961.91;4988282;28;70184;-37
2022/03/27 05:08:59;;;;;;;6.63;6.03;;;;;;;33.51;57.12;100971.94;4986137;28;66217;-38
2022/03/27 05:11:30;;;;;;;6.32;5.80;;;;;;;33.33;57.74;100951.97;4982031;28;69652;-36
2022/03/27 05:14:00;;;;;;;6.07;5.25;;;;;;;33.19;55.70;100953.25;4999645;28;65835;-37
2022/03/27 05:16:31;;;;;;;5.65;5.25;;;;;;;33.08;54.85;100948.63;4991301;28;70157;-36
2022/03/27 05:19:04;;;;;;;5.15;4.65;;;;;;;32.85;53.91;100939.34;4999146;28;67085;-36
2022/03/27 05:21:35;;;;;;;6.78;4.47;;;;;;;32.78;52.81;100930.44;4990357;28;68948;-36
2022/03/27 05:24:08;;;;;;;4.90;4.30;;;;;;;32.59;52.34;100907.94;5012689;28;66028;-35
2022/03/27 05:26:39;;;;;;;8.38;4.60;;;;;;;32.61;51.85;100930.28;4993667;28;69165;-36
2022/03/27 05:29:10;;;;;;;4.68;4.28;;;;;;;32.49;51.85;100913.97;5018331;28;66393;-36
2022/03/27 05:31:41;;;;;;;5.15;4.43;;;;;;;32.46;51.11;100910.88;5023165;28;68959;-35
2022/03/27 05:34:12;;;;;;;4.85;4.50;;;;;;;32.22;49.98;100877.34;5020141;28;66175;-37
2022/03/27 05:36:43;;;;;;;4.57;4.18;;;;;;;32.23;49.38;100885.28;5017471;28;70197;-36
2022/03/27 05:39:14;;;;;;;4.15;3.85;;;;;;;32.30;49.48;100896.03;5000352;28;65109;-35
2022/03/27 05:41:45;;;;;;;5.30;3.80;;;;;;;32.17;48.63;100871.78;5017971;28;70564;-36
2022/03/27 05:44:15;;;;;;;3.72;3.50;;;;;;;32.22;48.46;100880.06;5005194;28;66381;-37
2022/03/27 05:46:46;;;;;;;5.78;3.58;;;;;;;32.21;48.04;100872.97;5019089;28;69312;-35
2022/03/27 05:49:17;;;;;;;8.75;3.58;;;;;;;32.08;50.32;100846.03;5009420;28;66019;-35
2022/03/27 05:51:47;;;;;;;4.15;3.70;;;;;;;32.19;50.17;100856.09;5018394;28;70183;-35
2022/03/27 05:54:18;;;;;;;3.97;3.67;;;;;;;32.21;50.04;100848.56;5014272;28;65644;-35
2022/03/27 05:56:49;;;;;;;4.53;3.47;;;;;;;32.24;48.71;100842.66;5016418;28;69698;-36
2022/03/27 05:59:20;;;;;;;5.93;3.58;;;;;;;32.11;48.93;100826.56;5018663;28;66703;-35
2022/03/27 06:01:50;;;;;;;11.18;3.55;;;;;;;32.15;48.40;100825.88;4997684;28;69987;-38
2022/03/27 06:04:21;;;;;;;6.30;4.00;;;;;;;32.16;47.83;100824.00;5012320;28;66412;-38
2022/03/27 06:06:52;;;;;;;5.97;4.05;;;;;;;32.18;47.61;100816.44;5013725;28;70515;-39
2022/03/27 06:09:23;;;;;;;5.32;4.07;;;;;;;32.05;46.82;100790.31;5019854;28;65758;-38
2022/03/27 06:11:53;;;;;;;4.18;3.88;;;;;;;32.09;46.46;100796.09;5019571;28;70606;-38
2022/03/27 06:14:25;;;;;;;4.20;3.80;;;;;;;32.08;46.00;100797.19;5012912;28;65935;-39
2022/03/27 06:16:56;;;;;;;5.15;4.47;;;;;;;32.06;45.06;100786.53;5021891;28;70190;-39
2022/03/27 06:19:30;;;;;;;7.63;4.05;;;;;;;32.07;44.76;100781.94;5013461;28;66569;-38
2022/03/27 06:22:00;;;;;;;3.78;3.47;;;;;;;32.10;44.77;100770.66;5021755;28;69689;-38
2022/03/27 06:24:31;;;;;;;4.83;3.37;;;;;;;31.99;44.06;100759.50;5017970;28;66824;-38
2022/03/27 06:27:02;;;;;;;4.38;3.40;;;;;;;32.05;43.59;100752.34;5019996;28;70789;-37
2022/03/27 06:29:33;;;;;;;7.00;3.50;;;;;;;32.11;43.63;100750.59;5021172;28;66236;-37
2022/03/27 06:32:04;;;;;;;3.88;3.58;;;;;;;32.04;43.33;100737.13;5021027;28;70241;-37
2022/03/27 06:34:35;;;;;;;4.07;3.25;;;;;;;32.12;42.83;100749.50;5020404;28;68364;-38
2022/03/27 06:37:05;;;;;;;4.38;3.58;;;;;;;32.03;42.81;100728.13;5021498;28;70591;-38
2022/03/27 06:39:36;;;;;;;4.50;4.10;;;;;;;31.68;42.88;100664.78;5013489;28;65770;-34
2022/03/27 06:42:07;;;;;;;4.90;4.00;;;;;;;32.16;42.77;100732.53;5018130;28;71519;-35
2022/03/27 06:44:38;;;;;;;4.20;3.90;;;;;;;32.01;44.57;100711.28;5021317;28;66307;-36
2022/03/27 06:47:09;;;;;;;5.05;3.65;;;;;;;32.10;44.56;100722.63;5020398;28;70265;-35
2022/03/27 06:49:40;;;;;;;4.45;4.05;;;;;;;32.10;44.42;100716.38;5018536;28;65162;-36
2022/03/27 06:52:11;;;;;;;4.43;4.13;;;;;;;32.12;43.61;100709.63;5021281;28;70371;-36
2022/03/27 06:54:44;;;;;;;4.03;3.80;;;;;;;32.03;43.66;100690.16;5020169;28;65927;-34
2022/03/27 06:57:14;;;;;;;4.88;4.57;;;;;;;32.07;42.86;100705.97;5000931;28;70840;-35
2022/03/27 07:05:26;;;;;;;4.07;3.78;;;;;;;32.05;42.43;100682.63;5008770;28;66148;-35
2022/03/27 07:08:05;;;;;;;3.90;3.58;;;;;;;32.09;42.61;100684.84;5019830;28;69500;-39
2022/03/27 07:10:37;;;;;;;4.53;4.22;;;;;;;32.09;41.82;100682.16;4998724;28;66041;-35
2022/03/27 07:13:09;;;;;;;4.07;3.78;;;;;;;32.05;42.38;100677.19;5014363;28;70240;-37
2022/03/27 07:15:41;;;;;;;4.22;3.88;;;;;;;32.01;41.80;100659.75;5019713;28;66179;-36
2022/03/27 07:18:14;;;;;;;3.80;3.50;;;;;;;32.03;41.53;100670.34;5020704;28;70704;-36
2022/03/27 07:20:46;;;;;;;3.83;3.63;;;;;;;32.00;41.64;100668.09;5006625;28;66662;-35
2022/03/27 07:23:19;;;;;;;5.32;3.88;;;;;;;31.94;41.61;100648.16;5011909;28;69663;-36
2022/03/27 07:25:53;;;;;;;3.63;3.00;;;;;;;31.58;41.13;100590.25;5016252;28;66589;-34
2022/03/27 07:28:25;;;;;;;5.78;3.50;;;;;;;31.95;40.82;100663.34;5013727;28;69079;-39
2022/03/27 07:30:55;;;;;;;3.88;3.42;;;;;;;31.98;41.46;100651.22;5017583;28;65976;-36
2022/03/27 07:33:27;;;;;;;3.50;3.22;;;;;;;31.99;41.12;100648.28;5016700;28;69166;-36
2022/03/27 07:35:59;;;;;;;3.60;3.40;;;;;;;32.00;40.55;100641.78;5015342;28;66441;-36
2022/03/27 07:38:31;;;;;;;4.82;3.25;;;;;;;31.92;40.68;100623.13;5013152;28;70232;-35
2022/03/27 07:41:02;;;;;;;3.88;3.58;;;;;;;31.95;40.47;100638.13;4996452;28;65688;-36
2022/03/27 07:43:33;;;;;;;4.13;3.43;;;;;;;31.95;40.31;100635.41;5012499;28;71204;-36
2022/03/27 07:46:03;;;;;;;3.83;3.53;;;;;;;31.91;40.56;100616.06;5019003;28;65676;-35
2022/03/27 07:48:34;;;;;;;3.50;3.30;;;;;;;32.01;39.70;100627.19;5020417;28;70374;-35
2022/03/27 07:51:06;;;;;;;3.00;2.80;;;;;;;32.02;40.16;100614.44;5012091;28;66292;-37
2022/03/27 07:53:37;;;;;;;4.30;3.90;;;;;;;32.02;39.94;100617.97;5017354;28;70212;-36
2022/03/27 07:56:08;;;;;;;4.13;3.78;;;;;;;32.08;40.04;100612.66;5013731;28;65938;-36
2022/03/27 07:58:39;;;;;;;4.15;3.78;;;;;;;32.04;40.10;100604.19;5017701;28;70359;-37
2022/03/27 08:01:12;;;;;;;3.67;3.47;;;;;;;32.11;39.94;100606.75;5016078;28;65809;-36
2022/03/27 08:03:44;;;;;;;4.70;3.70;;;;;;;32.11;39.96;100598.63;5019015;28;70322;-36
2022/03/27 08:06:15;;;;;;;3.17;2.97;;;;;;;32.05;40.03;100584.13;5001243;28;66018;-36
2022/03/27 08:08:46;;;;;;;3.47;3.20;;;;;;;32.01;39.48;100572.06;5017086;28;70367;-36
2022/03/27 08:11:17;;;;;;;3.65;3.08;;;;;;;32.06;39.93;100574.91;5016472;28;66097;-35
2022/03/27 08:13:48;;;;;;;4.15;3.25;;;;;;;31.99;40.13;100569.59;5018700;28;71422;-35
2022/03/27 08:16:19;;;;;;;4.05;3.70;;;;;;;32.10;40.64;100578.00;5014848;28;65743;-36
2022/03/27 08:18:49;;;;;;;3.88;3.58;;;;;;;32.10;40.84;100578.00;5006140;28;71506;-35
2022/03/27 08:21:20;;;;;;;6.57;3.10;;;;;;;32.11;40.84;100572.31;5010944;28;66435;-37
2022/03/27 08:23:51;;;;;;;4.78;3.40;;;;;;;32.13;40.51;100569.38;4998351;28;70328;-36
2022/03/27 08:29:11;;;;;;;7.47;3.70;;;;;;;32.17;40.86;100559.69;5017544;28;70431;-36
2022/03/27 08:31:42;;;;;;;3.63;3.33;;;;;;;32.25;40.78;100556.63;4997472;28;66412;-35
2022/03/27 08:34:13;;;;;;;5.15;3.22;;;;;;;32.31;41.08;100544.81;5017439;28;69564;-35
2022/03/27 08:36:45;;;;;;;7.43;3.88;;;;;;;32.37;45.19;100530.28;4994405;28;66898;-36
2022/03/27 08:39:17;;;;;;;6.20;4.60;;;;;;;32.47;48.57;100532.41;5004352;28;69906;-36
2022/03/27 08:41:51;;;;;;;5.70;4.43;;;;;;;32.51;49.95;100535.47;5013721;28;65426;-35
2022/03/27 08:44:24;;;;;;;4.93;4.50;;;;;;;32.64;49.03;100554.22;4996558;28;69851;-35
2022/03/27 08:46:56;;;;;;;6.22;4.38;;;;;;;32.67;47.81;100545.59;4994893;28;66416;-35
2022/03/27 08:49:30;;;;;;;4.68;4.35;;;;;;;32.65;46.25;100548.56;5011519;28;70009;-35
2022/03/27 08:52:21;;;;;;;4.45;4.15;;;;;;;32.57;45.71;100543.50;5012547;28;66965;-35
2022/03/27 08:55:05;;;;;;;7.03;3.80;;;;;;;32.58;44.94;100558.72;5013414;28;70492;-35
2022/03/27 08:57:48;;;;;;;8.43;4.13;;;;;;;32.47;44.39;100527.81;5013557;28;65475;-36
2022/03/27 09:00:29;;;;;;;4.50;4.13;;;;;;;32.63;43.61;100544.44;4985825;28;69086;-36
2022/03/27 09:03:02;;;;;;;3.80;3.50;;;;;;;32.22;42.92;100481.09;5003085;28;65644;-35
2022/03/27 09:05:40;;;;;;;4.20;3.80;;;;;;;32.58;42.78;100547.03;5009960;28;70770;-36
2022/03/27 09:08:11;;;;;;;5.35;3.67;;;;;;;32.61;42.54;100549.28;4998710;28;66460;-36
2022/03/27 09:10:42;;;;;;;3.65;3.33;;;;;;;32.59;42.76;100545.97;5016424;28;69080;-36
2022/03/27 09:13:15;;;;;;;4.68;3.40;;;;;;;32.40;46.67;100483.66;5018904;28;65834;-36
2022/03/27 09:16:03;;;;;;;3.65;3.30;;;;;;;32.89;50.34;100541.13;5017045;28;69397;-37
2022/03/27 09:19:02;;;;;;;4.22;3.58;;;;;;;33.12;51.40;100550.28;5018334;28;66519;-37
2022/03/27 09:21:33;;;;;;;4.90;3.97;;;;;;;33.27;51.89;100545.16;5009941;28;69577;-37
2022/03/27 09:24:04;;;;;;;4.57;3.88;;;;;;;33.27;52.77;100526.13;5016560;28;65689;-36
2022/03/27 09:26:36;;;;;;;7.53;4.20;;;;;;;33.18;53.23;100505.81;4995809;28;69584;-36
2022/03/27 09:29:10;;;;;;;;;;;;;;;33.30;53.96;100549.28;4992984;28;66709;-36
2022/03/27 09:31:41;;;;;;;7.20;4.00;;;;;;;33.59;53.53;100550.06;4997473;28;69797;-36
2022/03/27 09:34:12;;;;;;;3.75;3.45;;;;;;;33.56;54.02;100545.13;4997142;28;65705;-37
2022/03/27 09:36:44;;;;;;;5.40;3.72;;;;;;;33.33;53.57;100492.50;4997544;28;69544;-37
2022/03/27 09:39:20;;;;;;;7.07;3.80;;;;;;;33.75;53.98;100560.13;5001971;28;66131;-37
2022/03/27 09:41:54;;;;;;;30.90;26.98;;;;;;;33.48;54.29;100513.69;4975572;28;70032;-37
2022/03/27 09:44:36;;;;;;;88.43;67.07;;;;;;;33.82;54.35;100557.22;4998283;28;65651;-37
2022/03/27 09:47:10;;;;;;;105.45;81.57;;;;;;;33.86;54.55;100557.56;4988466;28;70284;-36
2022/03/27 09:49:49;;;;;;;218.95;182.93;;;;;;;33.71;54.59;100528.22;5004538;28;66308;-37
2022/03/27 09:52:24;;;;;;;490.30;436.88;;;;;;;33.93;54.53;100577.25;4990633;28;70405;-37
2022/03/27 09:54:55;;;;;;;780.35;689.33;;;;;;;33.95;54.79;100591.44;5013162;28;66337;-37
2022/03/27 09:57:29;;;;;;;877.80;745.83;;;;;;;34.01;55.00;100587.72;5001427;28;69755;-37
2022/03/27 10:00:21;;;;;;;840.47;718.58;;;;;;;33.95;54.98;100596.88;4995959;28;65204;-37
2022/03/27 10:02:52;;;;;;;734.78;635.53;;;;;;;34.00;55.15;100595.06;4965728;28;69979;-36
2022/03/27 10:05:23;;;;;;;647.15;566.83;;;;;;;33.76;55.28;100544.63;4989751;28;66082;-36
2022/03/27 10:07:56;;;;;;;583.72;518.70;;;;;;;34.05;55.36;100586.19;4997246;28;70103;-37
2022/03/27 10:10:28;;;;;;;549.38;480.27;;;;;;;34.06;55.45;100581.56;5002278;28;66298;-37
2022/03/27 10:13:00;;;;;;;510.20;442.67;;;;;;;34.06;56.02;100570.69;5000740;28;70729;-37
2022/03/27 10:15:31;;;;;;;481.13;413.52;;;;;;;34.09;55.66;100579.16;5000576;28;66219;-37
2022/03/27 10:18:12;;;;;;;450.15;386.13;;;;;;;34.00;55.71;100567.03;4997899;28;69742;-36
2022/03/27 10:20:46;;;;;;;433.00;358.95;;;;;;;33.83;54.73;100495.50;5001401;28;66719;-36
2022/03/27 10:23:23;;;;;;;425.38;350.70;;;;;;;34.25;53.92;100542.94;4992848;28;69152;-38
2022/03/27 10:25:59;;;;;;;440.15;371.05;;;;;;;34.66;53.65;100603.41;4998260;28;65411;-38
2022/03/27 10:28:31;;;;;;;569.97;508.67;;;;;;;34.74;53.07;100599.41;5021179;28;69387;-37
2022/03/27 10:31:02;;;;;;;705.78;631.10;;;;;;;34.85;53.06;100605.81;5018327;28;66059;-38
2022/03/27 10:33:33;;;;;;;735.00;658.00;;;;;;;34.61;53.25;100570.66;5003863;28;69330;-36
2022/03/27 10:36:14;;;;;;;637.80;571.65;;;;;;;34.90;54.65;100609.41;5020197;28;65141;-36
2022/03/27 10:39:00;;;;;;;476.50;425.92;;;;;;;34.90;54.84;100603.16;4998228;28;70259;-36
2022/03/27 10:41:43;;;;;;;298.50;263.73;;;;;;;34.76;55.03;100586.34;5000210;28;65588;-37
2022/03/27 10:44:47;;;;;;;162.95;130.38;;;;;;;34.96;54.78;100618.47;5018237;28;69804;-36
2022/03/27 10:47:20;;;;;;;81.80;63.38;;;;;;;35.14;53.73;100625.53;5002370;28;66395;-37
2022/03/27 10:50:04;;;;;;;70.35;48.47;;;;;;;35.09;54.42;100622.75;5019130;28;69240;-41
2022/03/27 10:52:51;;;;;;;55.75;41.50;;;;;;;35.09;54.47;100623.56;5020523;28;66636;-36
2022/03/27 10:55:22;;;;;;;53.88;42.63;;;;;;;35.13;54.17;100626.59;5014951;28;70065;-36
2022/03/27 10:57:53;;;;;;;36.73;27.97;;;;;;;35.09;54.38;100639.94;5019420;28;66705;-36
2022/03/27 11:00:42;;;;;;;35.97;22.52;;;;;;;35.02;54.35;100655.63;4997410;28;70072;-36
2022/03/27 11:03:49;;;;;;;22.10;15.43;;;;;;;35.00;54.49;100663.25;5017451;28;66340;-37
2022/03/27 11:06:22;;;;;;;55.63;36.88;;;;;;;35.06;53.94;100684.06;5020306;28;69548;-36
2022/03/27 11:08:55;;;;;;;41.88;36.03;;;;;;;34.77;54.10;100652.56;5018297;28;66106;-36
2022/03/27 11:11:34;;;;;;;28.92;21.85;;;;;;;35.08;54.65;100708.34;5019345;28;70270;-36
2022/03/27 11:14:07;;;;;;;34.00;27.73;;;;;;;34.78;54.28;100662.41;5019534;28;66291;-36
2022/03/27 11:17:14;;;;;;;31.15;23.77;;;;;;;34.85;55.16;100695.72;5019288;28;69839;-35
2022/03/27 11:19:50;;;;;;;21.45;19.15;;;;;;;34.92;54.74;100683.56;4913905;28;66038;-36
2022/03/27 11:22:59;;;;;;;16.48;14.88;;;;;;;34.93;54.64;100696.13;4989925;28;70246;-36
2022/03/27 11:25:35;;;;;;;14.95;13.43;;;;;;;34.59;54.19;100630.00;5012604;28;66266;-41
2022/03/27 11:28:13;;;;;;;14.00;12.63;;;;;;;35.02;53.89;100690.22;5018503;28;69994;-37
2022/03/27 11:30:55;;;;;;;13.13;9.52;;;;;;;34.92;54.11;100688.22;5013611;28;66361;-36
2022/03/27 11:33:32;;;;;;;9.48;8.18;;;;;;;34.95;54.39;100703.25;5020168;28;69988;-36
2022/03/27 11:36:09;;;;;;;11.50;8.68;;;;;;;35.01;53.52;100718.56;5019230;28;66816;-36
2022/03/27 11:39:04;;;;;;;10.73;9.85;;;;;;;34.80;54.42;100706.56;5017145;28;70328;-36
2022/03/27 11:41:47;;;;;;;42.40;13.30;;;;;;;34.96;54.89;100722.03;4997049;28;66357;-37
2022/03/27 11:47:38;;;;;;;36.58;26.85;;;;;;;34.39;56.04;100744.88;5016687;28;66461;-36
2022/03/27 11:50:18;;;;;;;50.13;32.17;;;;;;;34.38;57.02;100761.47;5016782;28;69950;-35
2022/03/27 11:52:49;;;;;;;60.65;46.50;;;;;;;34.26;57.25;100767.00;5019601;28;65864;-35
2022/03/27 11:55:21;;;;;;;53.47;44.37;;;;;;;34.20;57.52;100785.13;5020151;28;69470;-35
2022/03/27 11:57:57;;;;;;;51.15;37.03;;;;;;;33.73;57.21;100747.22;4996490;28;66014;-35
2022/03/27 12:00:46;;;;;;;57.53;47.75;;;;;;;34.04;57.68;100813.13;5021786;28;70404;-37